Time;durP1;ratioP1;P1;durP2;ratioP2;P2;SDS_P1;SDS_P2;PMS_P1;PMS_P2;Temp;Humidity;BMP_temperature;BMP_pressure;BME280_temperature;BME280_humidity;BME280_pressure;Samples;Min_cycle;Max_cycle;Signal;HPM_P1;HPM_P2
2024/01/27 02:52:48;;;;;;;12.30;2.30;;;;;;;3.63;95.00;99290.64;106839;1305;557664;-45
2024/01/27 02:55:14;;;;;;;10.30;2.40;;;;;;;3.64;94.65;99290.10;107250;1304;22507;-45
2024/01/27 02:57:40;;;;;;;18.60;2.50;;;;;;;3.66;93.55;99291.95;107262;1291;22341;-46
2024/01/27 03:00:06;;;;;;;13.50;2.30;;;;;;;3.70;93.71;99294.27;107423;1297;22268;-44
2024/01/27 03:02:31;;;;;;;7.90;1.90;;;;;;;3.74;93.41;99296.42;107415;1311;22493;-47
2024/01/27 03:04:57;;;;;;;14.10;2.40;;;;;;;3.76;92.47;99301.73;107297;1292;164093;-45
2024/01/27 03:07:22;;;;;;;10.80;2.60;;;;;;;3.79;92.33;99298.02;107649;1309;23107;-45
2024/01/27 03:09:47;;;;;;;7.60;2.30;;;;;;;3.77;91.37;99299.63;107683;1286;22456;-44
2024/01/27 03:12:13;;;;;;;9.00;2.50;;;;;;;3.78;91.16;99297.36;107683;1295;22440;-44
2024/01/27 03:14:38;;;;;;;11.50;1.90;;;;;;;3.78;91.14;99297.50;107655;1309;22993;-45
2024/01/27 03:17:03;;;;;;;9.60;2.20;;;;;;;3.79;90.86;99300.08;107572;1288;22247;-44
2024/01/27 03:19:29;;;;;;;9.70;1.60;;;;;;;3.80;90.65;99297.10;107535;1310;23037;-47
2024/01/27 03:21:54;;;;;;;8.20;1.80;;;;;;;3.83;90.58;99299.45;107544;1291;23206;-44
2024/01/27 03:24:19;;;;;;;13.20;2.50;;;;;;;3.84;90.34;99299.27;107558;1310;24379;-47
2024/01/27 03:26:45;;;;;;;7.80;2.10;;;;;;;3.81;90.08;99298.64;107551;1310;22953;-45
2024/01/27 03:29:10;;;;;;;10.50;2.10;;;;;;;3.76;89.35;99300.70;107556;1310;22797;-45
2024/01/27 03:31:35;;;;;;;10.00;2.10;;;;;;;3.76;89.46;99300.67;107546;1287;22278;-44
2024/01/27 03:34:02;;;;;;;9.60;2.20;;;;;;;3.76;89.69;99296.52;107543;1288;22255;-44
2024/01/27 03:36:27;;;;;;;10.20;2.40;;;;;;;3.75;89.65;99304.70;107576;1310;22953;-46
2024/01/27 03:38:53;;;;;;;12.40;2.90;;;;;;;3.75;89.60;99300.39;107555;1310;22360;-44
2024/01/27 03:41:18;;;;;;;13.20;2.10;;;;;;;3.77;90.12;99299.79;107558;1291;22224;-43
2024/01/27 03:43:44;;;;;;;11.50;2.00;;;;;;;3.76;89.26;99313.86;107570;1310;22999;-43
2024/01/27 03:46:09;;;;;;;7.90;2.20;;;;;;;3.78;89.29;99309.83;107580;1293;22443;-46
2024/01/27 03:48:37;;;;;;;8.40;2.20;;;;;;;3.78;89.48;99306.16;107546;1291;22329;-43
2024/01/27 03:51:03;;;;;;;10.60;2.60;;;;;;;3.77;89.53;99309.84;107573;1289;22217;-48
2024/01/27 03:53:28;;;;;;;8.20;2.10;;;;;;;3.76;89.28;99315.08;107587;1287;22419;-48
2024/01/27 03:55:54;;;;;;;5.20;1.60;;;;;;;3.75;88.76;99314.08;107528;1310;22517;-46
2024/01/27 03:58:19;;;;;;;8.00;2.10;;;;;;;3.76;89.13;99317.33;107540;1310;22278;-46
2024/01/27 04:00:45;;;;;;;13.20;2.20;;;;;;;3.77;89.03;99317.14;107543;1310;22332;-47
2024/01/27 04:03:10;;;;;;;10.60;2.30;;;;;;;3.75;88.94;99318.39;107547;1310;22997;-46
2024/01/27 04:05:36;;;;;;;6.60;1.80;;;;;;;3.77;88.56;99325.30;107532;1291;22262;-47
2024/01/27 04:08:02;;;;;;;6.80;2.10;;;;;;;3.75;88.53;99332.79;107523;1310;22699;-46
2024/01/27 04:10:27;;;;;;;13.10;2.50;;;;;;;3.77;88.78;99338.64;107573;1291;22339;-44
2024/01/27 04:12:53;;;;;;;15.10;2.00;;;;;;;3.76;88.68;99335.20;107546;1310;23073;-47
2024/01/27 04:15:18;;;;;;;12.00;2.10;;;;;;;3.75;88.62;99338.35;107551;1310;22413;-46
2024/01/27 04:17:43;;;;;;;9.40;2.20;;;;;;;3.80;89.46;99336.13;107571;1288;25192;-45
2024/01/27 04:20:09;;;;;;;9.80;2.00;;;;;;;3.79;89.55;99340.51;107537;1310;22217;-49
2024/01/27 04:22:35;;;;;;;11.40;2.50;;;;;;;3.76;89.42;99331.89;107558;1310;22508;-45
2024/01/27 04:25:01;;;;;;;9.90;1.70;;;;;;;3.75;89.38;99335.90;107552;1310;22342;-47
2024/01/27 04:27:29;;;;;;;8.60;2.30;;;;;;;3.73;89.18;99332.17;107536;1310;22258;-45
2024/01/27 04:29:54;;;;;;;10.30;2.20;;;;;;;3.70;89.27;99337.61;107567;1287;22239;-47
2024/01/27 04:32:21;;;;;;;11.30;2.00;;;;;;;3.67;89.45;99331.48;107544;1310;22273;-44
2024/01/27 04:34:46;;;;;;;11.10;2.30;;;;;;;3.66;89.23;99332.69;107552;1291;22319;-45
2024/01/27 04:37:12;;;;;;;9.10;2.00;;;;;;;3.65;89.49;99331.86;107353;1294;22727;-47
2024/01/27 04:39:37;;;;;;;12.50;2.40;;;;;;;3.65;89.62;99341.23;107534;1310;23033;-44
2024/01/27 04:42:02;;;;;;;5.80;1.70;;;;;;;3.62;89.36;99339.02;107523;1291;22296;-45
2024/01/27 04:44:28;;;;;;;12.00;2.30;;;;;;;3.65;89.63;99342.08;107541;1310;22256;-47
2024/01/27 04:46:53;;;;;;;7.40;2.00;;;;;;;3.59;89.59;99341.90;107553;1291;22456;-45
2024/01/27 04:49:18;;;;;;;6.90;2.90;;;;;;;3.62;89.50;99345.63;107561;1310;22254;-45
2024/01/27 04:51:43;;;;;;;11.50;2.00;;;;;;;3.62;89.73;99349.80;107552;1310;22286;-44
2024/01/27 04:54:09;;;;;;;10.80;2.50;;;;;;;3.62;89.37;99352.91;107556;1310;23364;-45
2024/01/27 04:56:34;;;;;;;12.30;2.60;;;;;;;3.62;89.78;99346.31;107555;1300;22254;-44
2024/01/27 04:59:00;;;;;;;11.80;2.20;;;;;;;3.60;89.20;99352.09;107548;1288;22434;-45
2024/01/27 05:01:25;;;;;;;9.00;2.40;;;;;;;3.61;89.35;99348.07;107548;1310;22269;-45
2024/01/27 05:03:50;;;;;;;9.10;2.40;;;;;;;3.64;89.59;99346.61;107589;1291;22280;-45
2024/01/27 05:06:16;;;;;;;17.00;2.10;;;;;;;3.60;89.44;99344.96;107561;1291;23258;-46
2024/01/27 05:08:41;;;;;;;6.70;2.40;;;;;;;3.58;89.36;99348.34;107562;1294;23036;-44
2024/01/27 05:11:07;;;;;;;14.10;2.20;;;;;;;3.54;89.85;99347.75;107548;1310;23315;-44
2024/01/27 05:13:32;;;;;;;12.20;2.40;;;;;;;3.54;89.91;99350.34;107556;1310;22420;-45
2024/01/27 05:15:57;;;;;;;13.50;2.90;;;;;;;3.53;89.86;99342.90;107558;1288;22249;-44
2024/01/27 05:18:22;;;;;;;8.20;2.00;;;;;;;3.55;90.04;99344.95;107557;1310;22282;-44
2024/01/27 05:20:48;;;;;;;9.60;1.70;;;;;;;3.56;90.14;99345.42;107529;1291;22268;-47
2024/01/27 05:23:13;;;;;;;14.00;2.30;;;;;;;3.55;90.06;99349.63;107563;1310;22258;-46
2024/01/27 05:25:39;;;;;;;12.80;2.20;;;;;;;3.53;90.09;99343.09;107582;1287;22415;-44
2024/01/27 05:28:04;;;;;;;15.40;2.80;;;;;;;3.49;89.84;99346.48;107607;1291;22244;-48
2024/01/27 05:30:30;;;;;;;10.10;2.60;;;;;;;3.51;89.98;99340.89;107545;1307;22395;-44
2024/01/27 05:32:56;;;;;;;15.50;2.50;;;;;;;3.52;89.98;99340.51;107571;1288;22287;-45
2024/01/27 05:35:21;;;;;;;8.20;2.20;;;;;;;3.50;89.68;99339.18;107564;1304;22349;-44
2024/01/27 05:37:46;;;;;;;15.70;2.60;;;;;;;3.46;89.93;99341.01;107572;1310;22443;-45
2024/01/27 05:40:12;;;;;;;12.00;2.10;;;;;;;3.46;90.09;99339.46;107547;1310;22413;-44
2024/01/27 05:42:40;;;;;;;9.80;2.40;;;;;;;3.46;89.93;99339.09;107592;1291;22246;-44
2024/01/27 05:45:05;;;;;;;;;;;;;;;3.45;89.45;99342.77;107598;1304;22444;-45
2024/01/27 05:47:30;;;;;;;12.80;2.90;;;;;;;3.46;89.90;99339.09;107581;1294;22906;-45
2024/01/27 05:49:56;;;;;;;17.70;3.40;;;;;;;3.51;90.10;99338.30;107543;1310;22277;-44
2024/01/27 05:52:21;;;;;;;12.10;2.60;;;;;;;3.50;89.64;99346.29;107542;1300;22285;-45
2024/01/27 05:54:46;;;;;;;15.90;3.70;;;;;;;3.43;90.49;99349.21;107543;1310;23207;-47
2024/01/27 05:57:11;;;;;;;13.50;4.10;;;;;;;3.32;91.59;99350.04;107568;1291;22432;-46
2024/01/27 05:59:37;;;;;;;14.30;3.10;;;;;;;3.28;92.58;99355.50;107573;1294;22297;-46
2024/01/27 06:02:02;;;;;;;11.80;2.90;;;;;;;3.26;93.11;99362.13;107583;1310;22261;-47
2024/01/27 06:04:28;;;;;;;12.30;2.70;;;;;;;3.12;94.90;99368.19;107566;1291;22290;-46
2024/01/27 06:06:53;;;;;;;10.30;2.30;;;;;;;3.03;95.79;99353.49;107551;1310;22421;-47
2024/01/27 06:09:18;;;;;;;14.00;3.30;;;;;;;2.98;96.60;99346.69;107577;1310;23201;-46
2024/01/27 06:11:43;;;;;;;14.70;2.50;;;;;;;2.91;97.18;99349.27;107569;1310;22430;-46
2024/01/27 06:14:09;;;;;;;10.50;2.60;;;;;;;2.90;97.06;99350.86;107570;1288;23143;-44
2024/01/27 06:16:35;;;;;;;14.00;2.10;;;;;;;2.86;97.05;99345.56;107582;1291;22410;-46
2024/01/27 06:19:00;;;;;;;13.50;2.60;;;;;;;2.82;97.64;99347.39;107568;1291;22337;-46
2024/01/27 06:21:26;;;;;;;17.50;3.70;;;;;;;2.82;97.63;99347.39;107587;1310;22919;-46
2024/01/27 06:23:51;;;;;;;8.80;2.50;;;;;;;2.82;97.61;99344.30;107579;1286;23081;-46
2024/01/27 06:26:17;;;;;;;15.10;3.10;;;;;;;2.84;97.62;99347.02;107578;1310;22430;-44
2024/01/27 06:28:42;;;;;;;14.60;3.00;;;;;;;2.86;98.07;99353.20;107566;1287;22272;-44
2024/01/27 06:31:07;;;;;;;12.20;2.90;;;;;;;2.87;97.68;99341.55;107561;1288;23072;-46
2024/01/27 06:33:34;;;;;;;15.80;2.90;;;;;;;2.89;97.60;99352.42;107591;1290;22257;-46
2024/01/27 06:36:00;;;;;;;11.60;2.20;;;;;;;2.90;97.63;99350.33;107590;1310;22428;-46
2024/01/27 06:38:26;;;;;;;8.30;2.60;;;;;;;2.89;97.70;99351.56;107568;1310;22373;-46
2024/01/27 06:40:51;;;;;;;14.80;2.50;;;;;;;2.85;98.13;99356.14;107586;1310;22403;-44
2024/01/27 06:43:17;;;;;;;11.10;2.50;;;;;;;2.86;97.94;99354.23;107571;1310;22212;-44
2024/01/27 06:45:42;;;;;;;15.70;2.80;;;;;;;2.87;98.24;99353.00;107554;1302;23145;-44
2024/01/27 06:48:07;;;;;;;16.50;2.60;;;;;;;2.85;98.35;99355.11;107604;1287;22336;-45
2024/01/27 06:50:33;;;;;;;19.30;2.90;;;;;;;2.83;98.34;99359.85;107560;1309;22360;-45
2024/01/27 06:52:59;;;;;;;11.40;2.70;;;;;;;2.85;98.50;99351.66;107641;1286;22919;-44
2024/01/27 06:55:24;;;;;;;15.90;2.50;;;;;;;2.84;98.72;99351.15;107578;1291;23129;-44
2024/01/27 06:57:50;;;;;;;10.60;2.60;;;;;;;2.86;98.34;99352.50;107600;1290;22497;-46
2024/01/27 07:00:16;;;;;;;14.60;3.30;;;;;;;2.82;98.36;99352.95;107567;1310;22487;-44
2024/01/27 07:02:41;;;;;;;10.70;2.50;;;;;;;2.80;98.90;99349.34;107599;1310;22228;-45
2024/01/27 07:05:08;;;;;;;12.80;3.10;;;;;;;2.78;99.26;99357.02;107666;1309;22492;-45
2024/01/27 07:07:33;;;;;;;18.20;2.90;;;;;;;2.77;99.28;99355.48;107672;1287;22244;-46
2024/01/27 07:09:59;;;;;;;15.00;3.20;;;;;;;2.78;99.32;99360.14;107669;1309;22264;-45
2024/01/27 07:12:25;;;;;;;13.50;3.10;;;;;;;2.78;99.23;99369.83;107672;1286;22601;-45
2024/01/27 07:14:51;;;;;;;17.20;3.30;;;;;;;2.76;99.60;99365.89;107637;1309;22471;-44
2024/01/27 07:17:16;;;;;;;11.40;2.70;;;;;;;2.70;99.98;99367.75;107665;1309;22263;-47
2024/01/27 07:19:41;;;;;;;11.10;2.60;;;;;;;2.68;100.00;99367.27;107646;1309;23125;-48
2024/01/27 07:22:07;;;;;;;12.80;2.80;;;;;;;2.63;100.00;99363.05;107654;1286;22414;-44
2024/01/27 07:24:32;;;;;;;14.40;3.00;;;;;;;2.64;100.00;99369.27;107658;1309;22305;-43
2024/01/27 07:27:00;;;;;;;14.80;3.30;;;;;;;2.55;100.00;99360.98;107647;1309;22246;-46
2024/01/27 07:29:25;;;;;;;15.90;3.40;;;;;;;2.58;100.00;99361.77;107662;1309;22996;-44
2024/01/27 07:31:51;;;;;;;12.30;3.20;;;;;;;2.59;100.00;99361.23;107669;1286;22252;-43
2024/01/27 07:34:16;;;;;;;19.30;3.80;;;;;;;2.60;100.00;99360.87;107660;1309;22449;-45
2024/01/27 07:36:41;;;;;;;12.30;3.70;;;;;;;2.60;100.00;99369.70;107672;1287;23135;-45
2024/01/27 07:39:07;;;;;;;29.20;7.60;;;;;;;2.57;100.00;99373.90;107655;1309;22939;-46
2024/01/27 07:41:32;;;;;;;24.70;7.40;;;;;;;2.53;100.00;99370.70;107653;1291;22248;-43
2024/01/27 07:43:57;;;;;;;26.70;7.00;;;;;;;2.48;100.00;99383.62;107646;1287;22479;-44
2024/01/27 07:46:22;;;;;;;21.50;6.20;;;;;;;2.44;100.00;99389.40;107668;1309;22563;-46
2024/01/27 07:48:52;;;;;;;29.90;6.90;;;;;;;2.38;100.00;99388.14;107694;1309;23353;-45
2024/01/27 07:51:17;;;;;;;23.50;5.50;;;;;;;2.41;100.00;99387.57;107661;1309;22229;-44
2024/01/27 07:53:43;;;;;;;21.20;6.80;;;;;;;2.38;100.00;99397.83;107664;1309;22214;-46
2024/01/27 07:56:08;;;;;;;15.00;4.10;;;;;;;2.34;100.00;99396.71;107682;1290;22417;-48
2024/01/27 07:58:33;;;;;;;30.00;5.80;;;;;;;2.22;100.00;99401.44;107682;1288;22373;-46
2024/01/27 08:01:00;;;;;;;24.30;7.00;;;;;;;2.16;100.00;99395.85;107637;1309;23003;-45
2024/01/27 08:03:25;;;;;;;20.30;6.10;;;;;;;2.08;100.00;99392.19;107676;1290;22428;-46
2024/01/27 08:05:50;;;;;;;35.30;13.00;;;;;;;2.03;100.00;99407.86;107660;1309;23164;-46
2024/01/27 08:08:15;;;;;;;19.20;7.10;;;;;;;2.01;100.00;99401.67;107661;1309;22426;-47
2024/01/27 08:10:41;;;;;;;22.10;8.00;;;;;;;1.99;100.00;99404.65;107667;1291;22285;-44
2024/01/27 08:13:07;;;;;;;16.10;5.30;;;;;;;1.88;100.00;99401.91;107697;1309;23269;-43
2024/01/27 08:15:32;;;;;;;12.80;3.50;;;;;;;1.85;100.00;99410.59;107682;1309;23253;-44
2024/01/27 08:17:57;;;;;;;14.10;4.10;;;;;;;1.85;100.00;99408.88;107675;1287;22510;-45
2024/01/27 08:20:22;;;;;;;16.70;3.50;;;;;;;1.82;100.00;99414.11;107662;1285;22429;-47
2024/01/27 08:22:51;;;;;;;13.90;4.10;;;;;;;1.79;100.00;99414.17;107668;1309;23103;-44
2024/01/27 08:25:16;;;;;;;12.20;3.20;;;;;;;1.78;100.00;99416.78;107690;1291;23026;-49
2024/01/27 08:27:41;;;;;;;9.00;2.90;;;;;;;1.79;100.00;99421.60;107665;1292;22247;-45
2024/01/27 08:30:07;;;;;;;19.50;7.20;;;;;;;1.79;100.00;99423.15;107683;1297;22428;-45
2024/01/27 08:32:33;;;;;;;12.40;4.30;;;;;;;1.79;100.00;99423.33;107677;1289;22394;-44
2024/01/27 08:34:58;;;;;;;11.40;4.40;;;;;;;1.76;100.00;99428.73;107686;1287;22270;-45
2024/01/27 08:37:23;;;;;;;11.10;4.30;;;;;;;1.69;100.00;99436.64;107655;1309;22294;-43
2024/01/27 08:39:51;;;;;;;12.40;3.70;;;;;;;1.67;100.00;99439.44;107667;1309;22426;-46
2024/01/27 08:42:16;;;;;;;12.30;3.10;;;;;;;1.66;100.00;99437.57;107717;1286;22466;-44
2024/01/27 08:44:41;;;;;;;10.50;4.50;;;;;;;1.61;100.00;99434.88;107680;1286;22699;-46
2024/01/27 08:47:06;;;;;;;5.40;2.80;;;;;;;1.56;100.00;99443.26;107672;1309;23051;-44
2024/01/27 08:49:32;;;;;;;9.40;3.10;;;;;;;1.49;100.00;99445.26;107686;1309;22239;-45
2024/01/27 08:51:57;;;;;;;8.80;3.20;;;;;;;1.48;100.00;99445.97;107670;1290;23134;-45
2024/01/27 08:54:23;;;;;;;11.70;4.20;;;;;;;1.46;100.00;99442.02;107682;1287;23354;-46
2024/01/27 08:56:48;;;;;;;10.60;3.20;;;;;;;1.45;100.00;99444.11;107667;1309;22226;-46
2024/01/27 08:59:13;;;;;;;11.30;4.00;;;;;;;1.46;100.00;99452.73;107679;1291;22216;-46
2024/01/27 09:01:38;;;;;;;11.00;3.60;;;;;;;1.43;100.00;99456.75;107692;1287;22229;-44
2024/01/27 09:04:04;;;;;;;14.30;6.00;;;;;;;1.42;100.00;99459.70;107664;1309;22309;-47
2024/01/27 09:06:29;;;;;;;16.40;5.40;;;;;;;1.41;100.00;99463.70;107688;1288;23238;-46
2024/01/27 09:08:54;;;;;;;15.40;5.00;;;;;;;1.39;100.00;99464.25;107683;1294;22277;-44
2024/01/27 09:11:21;;;;;;;12.30;4.60;;;;;;;1.34;100.00;99470.88;107672;1309;22410;-46
2024/01/27 09:13:48;;;;;;;15.50;5.00;;;;;;;1.37;100.00;99469.80;107683;1309;22409;-46
2024/01/27 09:16:14;;;;;;;19.30;7.50;;;;;;;1.40;100.00;99472.86;107702;1288;23132;-46
2024/01/27 09:18:39;;;;;;;21.30;10.20;;;;;;;1.44;100.00;99476.10;107681;1309;22411;-44
2024/01/27 09:21:05;;;;;;;18.60;7.90;;;;;;;1.47;100.00;99484.50;107684;1288;22238;-44
2024/01/27 09:23:30;;;;;;;13.40;4.70;;;;;;;1.46;100.00;99488.67;107670;1287;22284;-44
2024/01/27 09:25:55;;;;;;;18.30;5.70;;;;;;;1.46;100.00;99489.17;107699;1291;22258;-46
2024/01/27 09:28:20;;;;;;;20.50;6.50;;;;;;;1.46;100.00;99486.41;107665;1290;23118;-46
2024/01/27 09:30:46;;;;;;;13.10;6.40;;;;;;;1.51;100.00;99488.41;107684;1291;22785;-44
2024/01/27 09:33:11;;;;;;;19.20;8.60;;;;;;;1.56;100.00;99494.05;107671;1309;22261;-49
2024/01/27 09:35:37;;;;;;;17.50;7.10;;;;;;;1.60;100.00;99498.30;107697;1291;22247;-44
2024/01/27 09:38:02;;;;;;;11.80;5.10;;;;;;;1.61;100.00;99504.86;107683;1291;22887;-44
2024/01/27 09:40:28;;;;;;;8.20;4.50;;;;;;;1.61;100.00;99501.23;107682;1288;22493;-43
2024/01/27 09:42:59;;;;;;;13.70;5.00;;;;;;;1.62;100.00;99509.34;107675;1294;22405;-48
2024/01/27 09:45:25;;;;;;;11.00;4.20;;;;;;;1.62;100.00;99506.23;107705;1287;22270;-45
2024/01/27 09:47:51;;;;;;;16.90;5.20;;;;;;;1.66;100.00;99511.19;107689;1287;22487;-46
2024/01/27 09:50:17;;;;;;;17.80;5.30;;;;;;;1.65;100.00;99506.36;107689;1309;23308;-47
2024/01/27 09:52:43;;;;;;;10.70;4.40;;;;;;;1.67;100.00;99514.61;107677;1309;22529;-47
2024/01/27 09:55:08;;;;;;;15.20;4.20;;;;;;;1.74;100.00;99513.46;107681;1309;22438;-45
2024/01/27 09:57:37;;;;;;;15.30;4.00;;;;;;;1.79;100.00;99514.61;107690;1309;22257;-44
2024/01/27 10:00:05;;;;;;;13.50;3.70;;;;;;;1.78;100.00;99516.01;107714;1309;23055;-44
2024/01/27 10:02:31;;;;;;;;;;;;;;;1.80;100.00;99514.23;107691;1309;22524;-47
2024/01/27 10:04:56;;;;;;;18.30;5.00;;;;;;;1.82;100.00;99521.29;107718;1309;22271;-45
2024/01/27 10:07:23;;;;;;;17.90;4.20;;;;;;;1.84;100.00;99526.63;107677;1309;22422;-43
2024/01/27 10:09:49;;;;;;;13.50;4.00;;;;;;;1.85;100.00;99533.33;107671;1309;22227;-47
2024/01/27 10:12:16;;;;;;;14.40;4.70;;;;;;;1.89;100.00;99536.56;107670;1309;22425;-45
2024/01/27 10:14:44;;;;;;;16.90;6.00;;;;;;;1.94;100.00;99533.73;107673;1309;23210;-47
2024/01/27 10:17:23;;;;;;;12.80;3.70;;;;;;;1.92;100.00;99540.67;107693;1291;22484;-44
2024/01/27 10:20:00;;;;;;;9.30;4.00;;;;;;;1.93;100.00;99544.80;107692;1287;22280;-44
2024/01/27 10:22:26;;;;;;;13.70;5.90;;;;;;;1.95;100.00;99548.92;107685;1291;22319;-45
2024/01/27 10:24:52;;;;;;;15.50;6.30;;;;;;;1.98;100.00;99554.43;107696;1309;22260;-46
2024/01/27 10:27:18;;;;;;;14.30;4.60;;;;;;;2.01;100.00;99559.21;107685;1309;22467;-45
2024/01/27 10:29:57;;;;;;;13.70;4.10;;;;;;;2.04;100.00;99565.55;107678;1309;22224;-43
2024/01/27 10:32:23;;;;;;;8.60;3.20;;;;;;;2.05;100.00;99562.25;107688;1309;22279;-44
2024/01/27 10:35:09;;;;;;;15.50;4.10;;;;;;;2.04;100.00;99569.19;107697;1309;22328;-45
2024/01/27 10:37:35;;;;;;;7.70;3.60;;;;;;;2.04;100.00;99572.99;107699;1296;22264;-45
2024/01/27 10:40:08;;;;;;;12.70;4.10;;;;;;;2.00;100.00;99571.33;107693;1309;22494;-47
2024/01/27 10:42:35;;;;;;;9.70;3.20;;;;;;;1.98;100.00;99574.13;107677;1287;22221;-46
2024/01/27 10:45:01;;;;;;;11.20;3.30;;;;;;;1.98;100.00;99572.75;107724;1309;22340;-45
2024/01/27 10:47:29;;;;;;;6.10;3.30;;;;;;;2.01;100.00;99581.67;107691;1288;22361;-47
2024/01/27 10:49:59;;;;;;;10.50;3.20;;;;;;;2.01;100.00;99587.39;107703;1309;23144;-48
2024/01/27 10:52:37;;;;;;;9.80;2.60;;;;;;;2.03;100.00;99588.75;107682;1309;22934;-46
2024/01/27 10:55:06;;;;;;;10.90;3.70;;;;;;;2.09;100.00;99590.89;107697;1309;23053;-44
2024/01/27 10:57:33;;;;;;;8.00;3.50;;;;;;;2.14;100.00;99589.95;107685;1291;22478;-47
2024/01/27 11:00:00;;;;;;;7.50;2.80;;;;;;;2.15;100.00;99595.64;107689;1287;22894;-46
2024/01/27 11:02:32;;;;;;;13.90;4.20;;;;;;;2.20;100.00;99599.20;107669;1309;22904;-44
2024/01/27 11:04:58;;;;;;;7.20;4.00;;;;;;;2.21;100.00;99601.59;107693;1291;22486;-45
2024/01/27 11:07:24;;;;;;;6.90;3.80;;;;;;;2.21;100.00;99605.74;107706;1309;22970;-45
2024/01/27 11:09:51;;;;;;;21.50;8.90;;;;;;;2.22;100.00;99616.63;107685;1309;22414;-43
2024/01/27 11:12:18;;;;;;;22.70;11.80;;;;;;;2.23;100.00;99614.36;107664;1309;22486;-44
2024/01/27 11:14:45;;;;;;;12.80;4.10;;;;;;;2.22;100.00;99617.48;107674;1309;22317;-46
2024/01/27 11:17:10;;;;;;;8.00;2.60;;;;;;;2.15;100.00;99621.59;107712;1309;23199;-45
2024/01/27 11:19:36;;;;;;;11.90;3.90;;;;;;;2.14;100.00;99623.67;107676;1309;22280;-44
2024/01/27 11:22:04;;;;;;;6.90;4.00;;;;;;;2.16;100.00;99625.89;107688;1309;22288;-44
2024/01/27 11:24:29;;;;;;;5.00;2.30;;;;;;;2.16;100.00;99632.30;107685;1309;22255;-46
2024/01/27 11:27:07;;;;;;;5.50;3.30;;;;;;;2.17;100.00;99637.13;107659;1309;23012;-46
2024/01/27 11:29:33;;;;;;;8.00;3.20;;;;;;;2.18;100.00;99643.16;107694;1309;22237;-46
2024/01/27 11:32:04;;;;;;;3.70;2.30;;;;;;;2.16;100.00;99650.64;107705;1288;22267;-46
2024/01/27 11:34:45;;;;;;;7.10;3.30;;;;;;;2.15;100.00;99647.88;107685;1309;22235;-45
2024/01/27 11:37:14;;;;;;;7.20;3.30;;;;;;;2.15;100.00;99661.71;107686;1309;22254;-44
2024/01/27 11:39:40;;;;;;;10.30;2.70;;;;;;;2.17;100.00;99664.10;107663;1309;22411;-47
2024/01/27 11:42:07;;;;;;;6.70;2.30;;;;;;;2.17;100.00;99675.70;107653;1309;22359;-47
2024/01/27 11:44:39;;;;;;;5.90;2.00;;;;;;;2.18;100.00;99673.44;107698;1309;22260;-46
2024/01/27 11:47:05;;;;;;;10.80;4.60;;;;;;;2.15;100.00;99672.61;107702;1309;22260;-44
2024/01/27 11:49:30;;;;;;;9.70;4.60;;;;;;;2.15;100.00;99674.18;107698;1288;22323;-46
2024/01/27 11:51:56;;;;;;;5.90;2.60;;;;;;;2.18;100.00;99677.23;107679;1288;23030;-47
2024/01/27 11:54:21;;;;;;;7.50;2.90;;;;;;;2.19;100.00;99682.94;107697;1309;22267;-44
2024/01/27 11:56:47;;;;;;;10.40;4.40;;;;;;;2.18;100.00;99684.69;107706;1290;22919;-45
2024/01/27 11:59:12;;;;;;;10.10;5.50;;;;;;;2.22;100.00;99693.27;107695;1309;22404;-45
2024/01/27 12:01:38;;;;;;;9.40;4.40;;;;;;;2.22;100.00;99697.60;107674;1285;23004;-47
2024/01/27 12:04:04;;;;;;;7.30;2.50;;;;;;;2.27;100.00;99707.21;107672;1291;22258;-48
2024/01/27 12:06:30;;;;;;;5.60;2.80;;;;;;;2.33;100.00;99709.55;107670;1309;22243;-46
2024/01/27 12:08:57;;;;;;;5.70;3.90;;;;;;;2.35;100.00;99716.08;107690;1288;23074;-45
2024/01/27 12:11:25;;;;;;;5.80;2.40;;;;;;;2.25;100.00;99725.39;107669;1309;22401;-47
2024/01/27 12:13:52;;;;;;;6.60;2.30;;;;;;;2.27;100.00;99727.11;107681;1309;22436;-45
2024/01/27 12:16:17;;;;;;;6.60;3.40;;;;;;;2.31;100.00;99727.75;107683;1309;22275;-45
2024/01/27 12:18:46;;;;;;;4.80;3.50;;;;;;;2.32;100.00;99729.98;107691;1309;22523;-46
2024/01/27 12:21:11;;;;;;;2.90;2.10;;;;;;;2.31;100.00;99739.34;107679;1309;22230;-45
2024/01/27 12:23:57;;;;;;;3.80;1.90;;;;;;;2.32;100.00;99746.25;107670;1309;22441;-44
2024/01/27 12:26:25;;;;;;;4.90;2.10;;;;;;;2.28;100.00;99755.98;107701;1291;22480;-48
2024/01/27 12:28:50;;;;;;;;;;;;;;;2.29;100.00;99759.95;107714;1291;22439;-44
2024/01/27 12:31:18;;;;;;;6.60;3.70;;;;;;;2.30;100.00;99766.50;107675;1309;22890;-44
2024/01/27 12:33:55;;;;;;;17.80;5.70;;;;;;;2.27;100.00;99766.37;107661;1309;22256;-44
2024/01/27 12:36:21;;;;;;;8.40;3.90;;;;;;;2.25;100.00;99765.89;107690;1289;21796;-49
2024/01/27 12:39:08;;;;;;;7.70;3.20;;;;;;;2.27;100.00;99769.83;107684;1291;22421;-46
2024/01/27 12:41:34;;;;;;;5.20;2.50;;;;;;;2.18;100.00;99777.41;107687;1309;22416;-45
2024/01/27 12:43:59;;;;;;;28.20;6.90;;;;;;;2.20;100.00;99777.02;107674;1309;22273;-46
2024/01/27 12:46:24;;;;;;;31.80;6.90;;;;;;;2.20;100.00;99785.50;107670;1309;22423;-45
2024/01/27 12:48:50;;;;;;;21.50;8.90;;;;;;;2.13;100.00;99790.44;107665;1302;22264;-45
2024/01/27 12:51:15;;;;;;;6.90;3.60;;;;;;;2.21;100.00;99791.38;107665;1309;23141;-46
2024/01/27 12:53:43;;;;;;;18.20;7.30;;;;;;;2.22;100.00;99802.26;107679;1288;22447;-48
2024/01/27 12:56:14;;;;;;;6.60;2.30;;;;;;;2.28;100.00;99803.92;107684;1291;22485;-47
2024/01/27 12:58:41;;;;;;;8.80;3.30;;;;;;;2.25;100.00;99814.67;107687;1287;22437;-44
2024/01/27 13:01:07;;;;;;;7.20;2.90;;;;;;;2.26;100.00;99817.08;107685;1288;22313;-45
2024/01/27 13:03:32;;;;;;;12.70;5.70;;;;;;;2.27;100.00;99822.77;107681;1309;22495;-44
2024/01/27 13:05:58;;;;;;;8.50;3.90;;;;;;;2.26;100.00;99832.48;107673;1309;22863;-45
2024/01/27 13:08:24;;;;;;;7.60;3.10;;;;;;;2.28;100.00;99837.64;107675;1287;22811;-45
2024/01/27 13:10:49;;;;;;;7.60;3.50;;;;;;;2.27;100.00;99841.46;107672;1309;22129;-46
2024/01/27 13:13:16;;;;;;;12.40;5.90;;;;;;;2.30;100.00;99847.84;107656;1286;22315;-45
2024/01/27 13:15:41;;;;;;;11.80;4.40;;;;;;;2.33;100.00;99851.08;107658;1290;22702;-44
2024/01/27 13:18:06;;;;;;;15.00;8.00;;;;;;;2.32;100.00;99851.42;107664;1309;22351;-44
2024/01/27 13:20:32;;;;;;;9.30;4.20;;;;;;;2.38;100.00;99855.87;107657;1309;22495;-45
2024/01/27 13:22:58;;;;;;;8.70;4.00;;;;;;;2.37;100.00;99857.25;107659;1309;22418;-49
2024/01/27 13:25:24;;;;;;;8.40;3.90;;;;;;;2.32;100.00;99860.61;107673;1309;22480;-46
2024/01/27 13:27:49;;;;;;;8.50;3.20;;;;;;;2.32;100.00;99865.80;107678;1309;22338;-46
2024/01/27 13:30:16;;;;;;;5.50;3.00;;;;;;;2.29;100.00;99870.85;107678;1309;22422;-47
2024/01/27 13:32:41;;;;;;;7.10;3.00;;;;;;;2.30;100.00;99872.90;107679;1291;22306;-46
2024/01/27 13:35:07;;;;;;;7.40;3.60;;;;;;;2.26;100.00;99885.25;107692;1309;23101;-48
2024/01/27 13:37:33;;;;;;;11.30;3.80;;;;;;;2.24;100.00;99885.79;107681;1288;22283;-45
2024/01/27 13:40:07;;;;;;;8.70;2.70;;;;;;;2.30;100.00;99887.80;107670;1309;22299;-45
2024/01/27 13:42:33;;;;;;;10.80;3.40;;;;;;;2.30;100.00;99889.35;107684;1288;23118;-45
2024/01/27 13:44:58;;;;;;;10.90;3.90;;;;;;;2.26;100.00;99891.48;107696;1307;22264;-48
2024/01/27 13:47:23;;;;;;;16.70;4.60;;;;;;;2.28;100.00;99895.25;107653;1291;23050;-44
2024/01/27 13:49:49;;;;;;;7.90;3.00;;;;;;;2.31;100.00;99896.61;107680;1291;22276;-45
2024/01/27 13:52:14;;;;;;;9.00;3.70;;;;;;;2.27;100.00;99903.23;107651;1309;22471;-46
2024/01/27 13:54:40;;;;;;;14.20;4.10;;;;;;;2.27;100.00;99909.29;107663;1309;23094;-47
2024/01/27 13:57:06;;;;;;;21.10;5.70;;;;;;;2.21;100.00;99916.98;107675;1309;22219;-45
2024/01/27 13:59:31;;;;;;;18.70;5.90;;;;;;;2.22;100.00;99920.24;107675;1309;23060;-48
2024/01/27 14:01:57;;;;;;;14.40;5.50;;;;;;;2.24;100.00;99926.79;107649;1309;22244;-46
2024/01/27 14:04:24;;;;;;;14.20;4.90;;;;;;;2.20;100.00;99934.79;107671;1290;22406;-47
2024/01/27 14:07:02;;;;;;;15.30;5.10;;;;;;;2.25;100.00;99933.02;107694;1309;23068;-45
2024/01/27 14:09:28;;;;;;;19.50;4.60;;;;;;;2.20;100.00;99944.31;107687;1309;22263;-46
2024/01/27 14:11:53;;;;;;;22.60;6.90;;;;;;;2.19;100.00;99943.45;107687;1309;22316;-44